Terminal Aerodrome Forecast
Issued by NWS

Home | Current Version | Previous Version | Text Only | Print | Product List | Glossary On
Versions: 1 2 3 4 5 6 7 8 9 10 11 12 13 14 15 16 17
000
FTUS45 KVEF 020520
TAFBIH
TAF
KBIH 020520Z 0206/0306 16016G24KT P6SM BKN090
     FM020700 33005KT P6SM SCT250
     FM021600 VRB05KT P6SM SCT250
     FM021900 16017G25KT P6SM SCT250
     FM030400 15011KT P6SM FEW250=

USA.gov is the U.S. government's official web portal to all federal, state and local government web resources and services.